Time;durP1;ratioP1;P1;durP2;ratioP2;P2;SDS_P1;SDS_P2;PMS_P1;PMS_P2;Temp;Humidity;BMP_temperature;BMP_pressure;BME280_temperature;BME280_humidity;BME280_pressure;Samples;Min_cycle;Max_cycle;Signal;HPM_P1;HPM_P2
2023/04/07 00:01:46;;;;;;;5.20;4.40;;;10.10;99.90;;;;;;5095035;28;20223;-59
2023/04/07 00:04:13;;;;;;;5.37;4.63;;;10.10;99.90;;;;;;5094994;28;20220;-57
2023/04/07 00:06:42;;;;;;;5.27;4.50;;;10.10;99.90;;;;;;5094885;28;20204;-56
2023/04/07 00:09:09;;;;;;;6.83;4.63;;;10.10;99.90;;;;;;5094882;28;20211;-57
2023/04/07 00:11:38;;;;;;;6.67;4.60;;;10.00;99.90;;;;;;5094779;28;20204;-56
2023/04/07 00:14:05;;;;;;;7.80;4.63;;;9.90;99.90;;;;;;5094493;28;20213;-58
2023/04/07 00:16:31;;;;;;;5.93;5.33;;;9.70;99.90;;;;;;5094902;28;20244;-57
2023/04/07 00:18:58;;;;;;;6.33;5.07;;;9.60;99.90;;;;;;5094462;28;20682;-57
2023/04/07 00:21:26;;;;;;;5.57;4.77;;;9.40;99.90;;;;;;5094858;28;20200;-57
2023/04/07 00:23:52;;;;;;;6.10;4.73;;;9.30;99.90;;;;;;5094437;28;20737;-57
2023/04/07 00:26:19;;;;;;;5.67;4.20;;;9.20;99.90;;;;;;5094408;28;20224;-57
2023/04/07 00:28:48;;;;;;;5.80;4.93;;;9.10;99.90;;;;;;5094030;28;20228;-58
2023/04/07 00:31:14;;;;;;;6.13;4.93;;;9.10;99.90;;;;;;5094801;28;20203;-58
2023/04/07 00:33:41;;;;;;;5.87;4.70;;;9.10;99.90;;;;;;5094555;28;20204;-57
2023/04/07 00:36:08;;;;;;;6.20;4.67;;;8.90;99.90;;;;;;5094328;28;20204;-57
2023/04/07 00:38:35;;;;;;;5.63;4.60;;;8.70;99.90;;;;;;5094157;28;20692;-57
2023/04/07 00:41:02;;;;;;;6.10;4.33;;;8.50;99.90;;;;;;5093860;28;20220;-55
2023/04/07 00:43:29;;;;;;;5.97;4.77;;;8.30;99.90;;;;;;5094348;28;20211;-56
2023/04/07 00:45:57;;;;;;;6.93;5.10;;;8.20;99.90;;;;;;5094262;28;20224;-55
2023/04/07 00:48:24;;;;;;;6.93;4.40;;;8.20;99.90;;;;;;5095253;28;20227;-57
2023/04/07 00:50:51;;;;;;;4.53;4.07;;;8.20;99.90;;;;;;5094445;28;20215;-57
2023/04/07 00:53:18;;;;;;;6.87;5.10;;;8.20;99.90;;;;;;5094945;28;20215;-56
2023/04/07 00:55:45;;;;;;;5.27;4.77;;;8.20;99.90;;;;;;5094521;28;20196;-56
2023/04/07 00:58:11;;;;;;;5.73;4.77;;;8.30;99.90;;;;;;5094812;28;20610;-57
2023/04/07 01:00:45;;;;;;;6.13;4.40;;;8.40;99.90;;;;;;5094616;28;20207;-57
2023/04/07 01:03:20;;;;;;;6.00;4.53;;;8.40;99.90;;;;;;5094965;28;20295;-56
2023/04/07 01:05:53;;;;;;;8.50;4.63;;;8.40;99.90;;;;;;5094948;28;20224;-56
2023/04/07 01:08:24;;;;;;;5.23;4.17;;;8.30;99.90;;;;;;5094512;28;20246;-57
2023/04/07 01:10:54;;;;;;;6.07;4.47;;;8.40;99.90;;;;;;5095167;28;20208;-57
2023/04/07 01:13:25;;;;;;;6.20;4.50;;;8.30;99.90;;;;;;5094567;28;20204;-57
2023/04/07 01:15:55;;;;;;;6.67;4.40;;;8.30;99.90;;;;;;5095408;28;20265;-57
2023/04/07 01:18:29;;;;;;;5.33;4.20;;;8.30;99.90;;;;;;5094679;28;20281;-57
2023/04/07 01:21:03;;;;;;;5.80;4.57;;;8.30;99.90;;;;;;5094867;28;20212;-57
2023/04/07 01:23:45;;;;;;;5.00;4.17;;;8.20;99.90;;;;;;5095450;28;20204;-57
2023/04/07 01:26:21;;;;;;;4.70;4.17;;;8.20;99.90;;;;;;5094682;28;20231;-57
2023/04/07 01:29:31;;;;;;;4.83;4.20;;;8.20;99.90;;;;;;5095193;28;20232;-57
2023/04/07 01:32:01;;;;;;;4.70;4.20;;;8.10;99.90;;;;;;5094613;28;20240;-56
2023/04/07 01:34:29;;;;;;;4.53;3.80;;;8.00;99.90;;;;;;5094729;28;20266;-55
2023/04/07 01:36:58;;;;;;;5.77;4.37;;;8.10;99.90;;;;;;5094441;28;20224;-57
2023/04/07 01:39:26;;;;;;;6.30;4.17;;;8.10;99.90;;;;;;5094455;28;20208;-57
2023/04/07 01:41:54;;;;;;;4.83;4.23;;;8.00;99.90;;;;;;5094362;28;20493;-56
2023/04/07 01:44:22;;;;;;;5.83;3.90;;;8.00;99.90;;;;;;5093853;28;20200;-56
2023/04/07 01:46:50;;;;;;;4.57;4.00;;;7.90;99.90;;;;;;5094058;28;20232;-57
2023/04/07 01:49:19;;;;;;;4.23;3.83;;;7.80;99.90;;;;;;5093577;28;20200;-56
2023/04/07 01:51:49;;;;;;;7.13;4.43;;;7.90;99.90;;;;;;5093306;28;20211;-56
2023/04/07 01:54:16;;;;;;;4.97;4.43;;;7.80;99.90;;;;;;5093489;28;20656;-56
2023/04/07 01:56:43;;;;;;;5.80;4.57;;;7.80;99.90;;;;;;5093534;28;20196;-58
2023/04/07 01:59:10;;;;;;;5.33;4.43;;;7.80;99.90;;;;;;5093373;28;20229;-57
2023/04/07 02:01:36;;;;;;;5.87;4.07;;;7.80;99.90;;;;;;5093438;28;20208;-56
2023/04/07 02:04:11;;;;;;;5.70;4.47;;;7.90;99.90;;;;;;5093338;28;20219;-57
2023/04/07 02:06:52;;;;;;;5.40;4.03;;;7.90;99.90;;;;;;5093060;28;20226;-57
2023/04/07 02:09:21;;;;;;;4.93;4.43;;;7.90;99.90;;;;;;5092941;28;20212;-56
2023/04/07 02:11:50;;;;;;;4.93;4.43;;;7.90;99.90;;;;;;5092968;28;20679;-56
2023/04/07 02:14:19;;;;;;;7.13;4.40;;;7.90;99.90;;;;;;5092810;28;20211;-58
2023/04/07 02:16:47;;;;;;;6.27;5.07;;;7.90;99.90;;;;;;5092578;28;20295;-57
2023/04/07 02:19:14;;;;;;;6.63;4.83;;;8.00;99.90;;;;;;5092539;28;20226;-57
2023/04/07 02:21:44;;;;;;;5.47;4.47;;;8.00;99.90;;;;;;5092904;28;20571;-57
2023/04/07 02:24:12;;;;;;;5.90;5.13;;;7.90;99.90;;;;;;5092710;28;20208;-57
2023/04/07 02:26:39;;;;;;;5.67;4.80;;;8.00;99.90;;;;;;5092145;28;20228;-57
2023/04/07 02:29:06;;;;;;;6.63;4.80;;;8.10;99.90;;;;;;5092259;28;20200;-57
2023/04/07 02:31:33;;;;;;;7.67;5.17;;;8.20;99.90;;;;;;5092297;28;20211;-57
2023/04/07 02:34:00;;;;;;;7.60;5.23;;;8.20;99.90;;;;;;5092186;28;20230;-57
2023/04/07 02:36:26;;;;;;;6.23;4.70;;;8.30;99.90;;;;;;5092333;28;20200;-57
2023/04/07 02:38:54;;;;;;;6.43;5.20;;;8.20;99.90;;;;;;5092240;28;20696;-56
2023/04/07 02:41:21;;;;;;;7.17;5.07;;;8.20;99.90;;;;;;5092008;28;20200;-56
2023/04/07 02:43:48;;;;;;;5.60;4.03;;;8.20;99.90;;;;;;5092325;28;20208;-57
2023/04/07 02:46:15;;;;;;;6.13;4.80;;;7.90;99.90;;;;;;5092108;28;20231;-56
2023/04/07 02:48:42;;;;;;;7.60;5.27;;;7.70;99.90;;;;;;5092242;28;20314;-57
2023/04/07 02:51:08;;;;;;;7.50;5.43;;;7.70;99.90;;;;;;5092159;28;20575;-56
2023/04/07 02:53:35;;;;;;;8.00;5.00;;;7.60;99.90;;;;;;5092057;28;20630;-57
2023/04/07 02:56:04;;;;;;;5.60;5.10;;;7.60;99.90;;;;;;5094818;28;20208;-57
2023/04/07 02:58:31;;;;;;;6.77;5.40;;;7.70;99.90;;;;;;5096066;28;20662;-56
2023/04/07 03:00:58;;;;;;;6.47;5.13;;;7.70;99.90;;;;;;5095928;28;20664;-56
2023/04/07 03:03:24;;;;;;;6.03;5.00;;;7.80;99.90;;;;;;5096304;28;20558;-57
2023/04/07 03:05:51;;;;;;;6.53;5.03;;;7.90;99.90;;;;;;5096082;28;20596;-56
2023/04/07 03:08:18;;;;;;;6.80;4.87;;;7.80;99.90;;;;;;5096155;28;20231;-56
2023/04/07 03:10:45;;;;;;;7.47;5.30;;;7.80;99.90;;;;;;5095894;28;20231;-57
2023/04/07 03:13:15;;;;;;;6.43;5.30;;;7.70;99.90;;;;;;5096144;28;20219;-57
2023/04/07 03:15:42;;;;;;;7.07;5.63;;;7.70;99.90;;;;;;5096313;28;20231;-57
2023/04/07 03:18:10;;;;;;;6.03;5.40;;;7.70;99.90;;;;;;5096003;28;20220;-57
2023/04/07 03:20:36;;;;;;;7.27;5.63;;;7.70;99.90;;;;;;5095495;28;20598;-57
2023/04/07 03:23:04;;;;;;;8.60;6.97;;;7.60;99.90;;;;;;5095867;28;20664;-56
2023/04/07 03:25:31;;;;;;;6.80;5.33;;;7.50;99.90;;;;;;5095589;28;20216;-56
2023/04/07 03:27:58;;;;;;;6.50;5.20;;;7.40;99.90;;;;;;5095457;28;20736;-56
2023/04/07 03:30:26;;;;;;;7.70;5.80;;;7.40;99.90;;;;;;5095542;28;20211;-56
2023/04/07 03:32:53;;;;;;;7.43;6.40;;;7.40;99.90;;;;;;5095767;28;20594;-56
2023/04/07 03:35:19;;;;;;;6.27;5.53;;;7.40;99.90;;;;;;5095666;28;20204;-57
2023/04/07 03:37:46;;;;;;;6.87;5.83;;;7.50;99.90;;;;;;5095419;28;20734;-56
2023/04/07 03:40:13;;;;;;;7.57;5.90;;;7.50;99.90;;;;;;5094859;28;20672;-56
2023/04/07 03:42:40;;;;;;;8.23;6.53;;;7.50;99.90;;;;;;5095404;28;20239;-56
2023/04/07 03:45:08;;;;;;;7.03;5.83;;;7.50;99.90;;;;;;5095495;28;20215;-56
2023/04/07 03:47:36;;;;;;;6.70;5.57;;;7.50;99.90;;;;;;5095020;28;20232;-55
2023/04/07 03:50:03;;;;;;;8.53;6.10;;;7.40;99.90;;;;;;5095172;28;20212;-55
2023/04/07 03:52:30;;;;;;;7.37;5.73;;;7.50;99.90;;;;;;5095194;28;20208;-56
2023/04/07 03:54:57;;;;;;;7.67;6.60;;;7.50;99.90;;;;;;5094859;28;20231;-55
2023/04/07 03:57:23;;;;;;;9.20;5.90;;;7.60;99.90;;;;;;5094807;28;20217;-56
2023/04/07 03:59:50;;;;;;;8.87;6.80;;;7.70;99.90;;;;;;5094809;28;20204;-56
2023/04/07 04:02:17;;;;;;;7.97;6.30;;;7.70;99.90;;;;;;5094958;28;20238;-55
2023/04/07 04:04:45;;;;;;;7.90;5.67;;;7.80;99.90;;;;;;5094891;28;20208;-56
2023/04/07 04:07:12;;;;;;;9.30;6.87;;;7.80;99.90;;;;;;5093803;28;20228;-56
2023/04/07 04:09:39;;;;;;;7.97;6.13;;;7.70;99.90;;;;;;5094725;28;20204;-56
2023/04/07 04:12:06;;;;;;;8.60;5.80;;;7.70;99.90;;;;;;5095120;28;20204;-56
2023/04/07 04:14:32;;;;;;;8.03;6.60;;;7.60;99.90;;;;;;5095091;28;20208;-56
2023/04/07 04:16:59;;;;;;;9.83;6.83;;;7.50;99.90;;;;;;5094547;28;20239;-56
2023/04/07 04:19:26;;;;;;;8.90;6.60;;;7.40;99.90;;;;;;5094757;28;20208;-56
2023/04/07 04:21:54;;;;;;;8.83;6.83;;;7.40;99.90;;;;;;5094863;28;20231;-56
2023/04/07 04:24:21;;;;;;;8.07;6.23;;;7.40;99.90;;;;;;5094850;28;20204;-58
2023/04/07 04:26:48;;;;;;;8.57;6.37;;;7.40;99.90;;;;;;5094260;28;20220;-56
2023/04/07 04:29:14;;;;;;;9.87;7.20;;;7.40;99.90;;;;;;5094385;28;20208;-56
2023/04/07 04:31:41;;;;;;;8.43;6.63;;;7.60;99.90;;;;;;5094504;28;20353;-57
2023/04/07 04:34:08;;;;;;;8.53;7.00;;;7.50;99.90;;;;;;5094290;28;20204;-57
2023/04/07 04:36:35;;;;;;;8.93;7.10;;;7.60;99.90;;;;;;5094076;28;20200;-56
2023/04/07 04:39:03;;;;;;;9.17;7.47;;;7.60;99.90;;;;;;5094850;28;20227;-57
2023/04/07 04:41:30;;;;;;;8.97;6.97;;;7.60;99.90;;;;;;5094429;28;20200;-57
2023/04/07 04:43:57;;;;;;;8.73;6.70;;;7.60;99.90;;;;;;5094297;28;20208;-57
2023/04/07 04:46:24;;;;;;;9.20;7.37;;;7.60;99.90;;;;;;5094390;28;20223;-56
2023/04/07 04:48:51;;;;;;;7.60;6.50;;;7.70;99.90;;;;;;5094318;28;20224;-56
2023/04/07 04:51:18;;;;;;;8.80;6.60;;;7.60;99.90;;;;;;5093839;28;20394;-56
2023/04/07 04:53:45;;;;;;;7.97;6.70;;;7.50;99.90;;;;;;5094299;28;20207;-56
2023/04/07 04:56:13;;;;;;;8.37;7.03;;;7.50;99.90;;;;;;5094099;28;20196;-56
2023/04/07 04:58:41;;;;;;;9.83;7.73;;;7.40;99.90;;;;;;5094237;28;20228;-56
2023/04/07 05:01:07;;;;;;;9.83;7.23;;;7.40;99.90;;;;;;5093996;28;20294;-55
2023/04/07 05:03:34;;;;;;;8.60;6.70;;;7.40;99.90;;;;;;5093850;28;20253;-56
2023/04/07 05:06:01;;;;;;;8.70;6.87;;;7.40;99.90;;;;;;5093406;28;20224;-56
2023/04/07 05:08:28;;;;;;;8.83;7.17;;;7.40;99.90;;;;;;5093856;28;20229;-58
2023/04/07 05:10:55;;;;;;;9.27;7.60;;;7.40;99.90;;;;;;5093897;28;20205;-57
2023/04/07 05:13:24;;;;;;;10.13;7.80;;;7.30;99.90;;;;;;5093783;28;20692;-57
2023/04/07 05:15:51;;;;;;;9.80;7.40;;;7.50;99.90;;;;;;5093608;28;20207;-56
2023/04/07 05:18:17;;;;;;;9.10;7.37;;;7.60;99.90;;;;;;5092443;28;20224;-57
2023/04/07 05:20:44;;;;;;;9.43;7.63;;;7.60;99.90;;;;;;5093239;28;20208;-57
2023/04/07 05:23:11;;;;;;;8.00;6.70;;;7.60;99.90;;;;;;5093448;28;20208;-56
2023/04/07 05:25:38;;;;;;;9.47;7.37;;;7.70;99.90;;;;;;5093961;28;20204;-57
2023/04/07 05:28:05;;;;;;;8.93;7.47;;;7.70;99.90;;;;;;5093322;28;20246;-57
2023/04/07 05:30:33;;;;;;;9.10;7.13;;;7.70;99.90;;;;;;5092923;28;20204;-58
2023/04/07 05:33:00;;;;;;;9.37;7.30;;;7.70;99.90;;;;;;5093210;28;20729;-57
2023/04/07 05:35:26;;;;;;;9.27;7.00;;;7.70;99.90;;;;;;5093375;28;20219;-57
2023/04/07 05:37:53;;;;;;;9.70;7.10;;;7.70;99.90;;;;;;5093046;28;20724;-56
2023/04/07 05:40:20;;;;;;;10.07;7.10;;;7.80;99.90;;;;;;5093486;28;20211;-56
2023/04/07 05:42:47;;;;;;;9.43;7.43;;;7.70;99.90;;;;;;5093181;28;20206;-56
2023/04/07 05:45:14;;;;;;;8.70;6.93;;;7.70;99.90;;;;;;5092748;28;20227;-56
2023/04/07 05:47:43;;;;;;;10.13;7.83;;;7.70;99.90;;;;;;5092735;28;20711;-60
2023/04/07 05:50:11;;;;;;;9.43;7.30;;;7.70;99.90;;;;;;5092620;28;20700;-57
2023/04/07 05:52:37;;;;;;;11.63;7.77;;;7.70;99.90;;;;;;5092959;28;20209;-57
2023/04/07 05:55:05;;;;;;;9.27;7.17;;;7.80;99.90;;;;;;5092841;28;20215;-57
2023/04/07 05:57:33;;;;;;;8.23;7.33;;;7.80;99.90;;;;;;5092647;28;20290;-57
2023/04/07 05:59:59;;;;;;;10.47;7.93;;;7.90;99.90;;;;;;5093028;28;20204;-57
2023/04/07 06:02:26;;;;;;;12.13;8.40;;;7.90;99.90;;;;;;5092913;28;20204;-56
2023/04/07 06:04:55;;;;;;;10.73;7.93;;;7.90;99.90;;;;;;5092996;28;20204;-57
2023/04/07 06:07:21;;;;;;;11.27;8.07;;;7.90;99.90;;;;;;5092352;28;20224;-57
2023/04/07 06:09:48;;;;;;;9.57;8.37;;;8.00;99.90;;;;;;5092535;28;20207;-57
2023/04/07 06:12:15;;;;;;;9.20;7.77;;;8.10;99.90;;;;;;5092887;28;20223;-57
2023/04/07 06:14:42;;;;;;;9.33;7.90;;;8.10;99.90;;;;;;5092873;28;20210;-55
2023/04/07 06:17:09;;;;;;;13.43;8.50;;;8.10;99.90;;;;;;5092564;28;20220;-56
2023/04/07 06:19:36;;;;;;;10.00;7.87;;;8.10;99.90;;;;;;5092475;28;20208;-57
2023/04/07 06:22:04;;;;;;;9.97;8.67;;;8.10;99.90;;;;;;5092511;28;20207;-57
2023/04/07 06:24:31;;;;;;;8.87;7.67;;;8.00;99.90;;;;;;5092647;28;20273;-57
2023/04/07 06:26:58;;;;;;;11.37;8.27;;;8.10;99.90;;;;;;5091927;28;20696;-57
2023/04/07 06:29:25;;;;;;;9.43;7.83;;;8.20;99.90;;;;;;5091801;28;20211;-57
2023/04/07 06:31:52;;;;;;;10.77;7.50;;;8.20;99.90;;;;;;5092444;28;20200;-57
2023/04/07 06:34:18;;;;;;;9.43;7.83;;;8.20;99.90;;;;;;5092206;28;20208;-57
2023/04/07 06:36:45;;;;;;;9.17;7.63;;;8.20;99.90;;;;;;5092373;28;20200;-57
2023/04/07 06:39:13;;;;;;;9.73;7.57;;;8.30;99.90;;;;;;5092278;28;20210;-57
2023/04/07 06:41:41;;;;;;;9.90;7.60;;;8.20;99.90;;;;;;5092447;28;20204;-58
2023/04/07 06:44:09;;;;;;;14.50;10.10;;;8.20;99.90;;;;;;5092372;28;20211;-58
2023/04/07 06:46:36;;;;;;;9.83;8.43;;;8.30;99.90;;;;;;5092151;28;20823;-57
2023/04/07 06:49:03;;;;;;;9.50;7.83;;;8.50;99.90;;;;;;5092669;28;20200;-57
2023/04/07 06:51:30;;;;;;;9.77;7.77;;;8.70;99.90;;;;;;5092025;28;20206;-59
2023/04/07 06:53:57;;;;;;;10.40;8.10;;;8.80;99.90;;;;;;5092008;28;20208;-56
2023/04/07 06:56:26;;;;;;;10.37;7.80;;;9.10;99.90;;;;;;5091903;28;20204;-56
2023/04/07 06:58:52;;;;;;;8.70;7.50;;;9.20;99.90;;;;;;5092047;28;20223;-58
2023/04/07 07:01:19;;;;;;;9.93;7.63;;;9.30;99.90;;;;;;5092091;28;20204;-58
2023/04/07 07:03:46;;;;;;;9.83;8.00;;;9.40;99.90;;;;;;5091824;28;20207;-57
2023/04/07 07:06:13;;;;;;;9.77;7.53;;;9.40;99.90;;;;;;5091859;28;20204;-57
2023/04/07 07:08:40;;;;;;;8.73;7.83;;;9.50;99.90;;;;;;5091651;28;20232;-57
2023/04/07 07:11:06;;;;;;;13.80;7.40;;;9.70;99.90;;;;;;5091840;28;20205;-58
2023/04/07 07:13:34;;;;;;;9.03;7.27;;;9.80;99.90;;;;;;5092062;28;20210;-57
2023/04/07 07:16:01;;;;;;;9.77;7.97;;;10.00;99.90;;;;;;5091574;28;20575;-57
2023/04/07 07:18:28;;;;;;;9.23;7.20;;;10.00;99.90;;;;;;5092045;28;20220;-57
2023/04/07 07:20:55;;;;;;;9.13;7.23;;;9.90;99.90;;;;;;5091859;28;20212;-58
2023/04/07 07:23:21;;;;;;;7.87;7.07;;;9.90;99.90;;;;;;5091991;28;20204;-58
2023/04/07 07:25:48;;;;;;;7.70;6.90;;;9.80;99.90;;;;;;5092254;28;20212;-57
2023/04/07 07:28:15;;;;;;;8.10;7.20;;;9.90;99.90;;;;;;5092056;28;20235;-57
2023/04/07 07:30:43;;;;;;;7.60;6.20;;;9.90;99.90;;;;;;5091785;28;20761;-57
2023/04/07 07:33:10;;;;;;;8.33;7.47;;;9.90;99.90;;;;;;5091762;28;20747;-57
2023/04/07 07:35:37;;;;;;;8.90;7.53;;;10.00;99.90;;;;;;5091633;28;20204;-56
2023/04/07 07:38:04;;;;;;;8.87;7.07;;;10.30;99.90;;;;;;5091927;28;20289;-56
2023/04/07 07:40:31;;;;;;;7.70;6.17;;;10.50;99.90;;;;;;5091798;28;20257;-56
2023/04/07 07:42:58;;;;;;;8.73;6.90;;;10.80;99.90;;;;;;5094299;28;20200;-56
2023/04/07 07:45:24;;;;;;;8.57;6.80;;;11.10;99.90;;;;;;5095273;28;20204;-57
2023/04/07 07:47:53;;;;;;;8.50;6.57;;;11.30;99.90;;;;;;5095089;28;20228;-57
2023/04/07 07:50:20;;;;;;;10.50;6.53;;;11.60;99.90;;;;;;5095282;28;20226;-60
2023/04/07 07:52:47;;;;;;;8.83;7.20;;;11.90;99.90;;;;;;5096313;28;20261;-58
2023/04/07 07:55:13;;;;;;;7.43;6.50;;;12.60;99.90;;;;;;5095322;28;20208;-57
2023/04/07 07:57:40;;;;;;;6.67;5.97;;;13.20;99.90;;;;;;5095206;28;20239;-57
2023/04/07 08:00:08;;;;;;;10.43;7.07;;;13.60;99.90;;;;;;5095187;28;20231;-58
2023/04/07 08:02:35;;;;;;;6.63;5.90;;;13.70;99.90;;;;;;5095073;28;20304;-58
2023/04/07 08:05:03;;;;;;;6.70;5.90;;;13.80;99.90;;;;;;5095419;28;20210;-57
2023/04/07 08:07:30;;;;;;;7.63;6.17;;;14.00;99.90;;;;;;5094967;28;20228;-57
2023/04/07 08:09:57;;;;;;;6.83;6.10;;;14.10;99.90;;;;;;5095087;28;20208;-58
2023/04/07 08:12:24;;;;;;;6.47;5.80;;;14.30;99.90;;;;;;5094863;28;20231;-57
2023/04/07 08:14:51;;;;;;;6.63;5.93;;;14.40;99.90;;;;;;5094965;28;20205;-58
2023/04/07 08:17:17;;;;;;;8.03;6.30;;;14.80;99.90;;;;;;5094577;28;20224;-57
2023/04/07 08:19:44;;;;;;;7.23;5.60;;;15.20;99.90;;;;;;5094916;28;20240;-58
2023/04/07 08:22:12;;;;;;;5.60;5.00;;;15.60;99.90;;;;;;5095329;28;20682;-58
2023/04/07 08:24:39;;;;;;;7.43;5.60;;;16.00;99.90;;;;;;5095528;28;20211;-58
2023/04/07 08:27:06;;;;;;;6.30;5.10;;;16.50;99.90;;;;;;5095159;28;20327;-58
2023/04/07 08:29:33;;;;;;;5.82;5.00;;;17.00;99.90;;;;;;5095699;28;20208;-56
2023/04/07 08:32:00;;;;;;;7.13;4.80;;;17.40;99.90;;;;;;5095734;28;20235;-58
2023/04/07 08:34:27;;;;;;;5.85;4.50;;;17.70;99.90;;;;;;5096224;28;20200;-58
2023/04/07 08:36:53;;;;;;;5.45;4.55;;;18.10;99.90;;;;;;5095695;28;20375;-58
2023/04/07 08:39:24;;;;;;;7.88;5.05;;;18.50;99.90;;;;;;5095560;28;20291;-58
2023/04/07 08:41:51;;;;;;;5.20;4.70;;;19.00;99.90;;;;;;5095170;28;20205;-58
2023/04/07 08:44:22;;;;;;;5.45;4.38;;;19.30;99.90;;;;;;5094940;28;20277;-58
2023/04/07 08:46:52;;;;;;;7.40;4.53;;;19.60;98.80;;;;;;5094516;28;20255;-58
2023/04/07 08:49:21;;;;;;;4.35;3.75;;;19.60;97.80;;;;;;5095259;28;20212;-58
2023/04/07 08:51:49;;;;;;;4.78;3.85;;;19.60;97.10;;;;;;5094478;28;20691;-58
2023/04/07 08:54:21;;;;;;;6.95;5.32;;;19.60;96.30;;;;;;5095243;28;20659;-59
2023/04/07 08:56:49;;;;;;;5.53;4.00;;;19.60;95.90;;;;;;5095063;28;20233;-59
2023/04/07 08:59:17;;;;;;;4.28;3.80;;;19.10;95.40;;;;;;5095872;28;20239;-59
2023/04/07 09:01:46;;;;;;;5.13;4.05;;;18.40;96.30;;;;;;5095193;28;20208;-59
2023/04/07 09:04:13;;;;;;;5.20;4.18;;;18.10;97.20;;;;;;5094569;28;20687;-59
2023/04/07 09:06:40;;;;;;;5.90;3.85;;;17.60;97.50;;;;;;5094491;28;20228;-59
2023/04/07 09:09:07;;;;;;;4.88;4.38;;;17.80;97.70;;;;;;5094424;28;20225;-59
2023/04/07 09:11:37;;;;;;;4.32;3.70;;;17.90;97.10;;;;;;5094144;28;20200;-58
2023/04/07 09:14:05;;;;;;;4.28;3.88;;;18.10;96.50;;;;;;5095090;28;20216;-59
2023/04/07 09:16:32;;;;;;;5.43;4.18;;;18.00;96.40;;;;;;5094325;28;20208;-59
2023/04/07 09:18:59;;;;;;;6.38;4.18;;;17.50;96.60;;;;;;5094509;28;20215;-58
2023/04/07 09:21:26;;;;;;;5.13;3.80;;;16.90;97.80;;;;;;5093908;28;20208;-59
2023/04/07 09:23:53;;;;;;;8.00;4.00;;;16.80;98.30;;;;;;5093851;28;20204;-59
2023/04/07 09:26:26;;;;;;;5.38;3.97;;;16.70;98.10;;;;;;5093972;28;20699;-58
2023/04/07 09:28:54;;;;;;;5.75;4.43;;;16.80;98.00;;;;;;5093655;28;20224;-59
2023/04/07 09:31:25;;;;;;;6.30;4.22;;;16.90;98.40;;;;;;5093555;28;20239;-58
2023/04/07 09:33:52;;;;;;;6.78;4.50;;;17.00;98.20;;;;;;5093470;28;20207;-58
2023/04/07 09:36:19;;;;;;;5.45;4.70;;;16.90;98.20;;;;;;5093880;28;20218;-58
2023/04/07 09:38:46;;;;;;;5.63;4.18;;;17.20;98.00;;;;;;5093588;28;20228;-58
2023/04/07 09:41:15;;;;;;;6.93;4.30;;;17.40;97.80;;;;;;5093310;28;20567;-58
2023/04/07 09:43:45;;;;;;;7.45;4.82;;;17.60;97.30;;;;;;5093536;28;20214;-58
2023/04/07 09:46:13;;;;;;;8.02;4.28;;;17.70;97.60;;;;;;5093202;28;20196;-58
2023/04/07 09:48:43;;;;;;;8.50;5.88;;;17.60;97.50;;;;;;5093170;28;20227;-58
2023/04/07 09:51:12;;;;;;;6.68;4.20;;;17.70;97.40;;;;;;5092588;28;20208;-58
2023/04/07 09:53:45;;;;;;;5.15;4.07;;;17.90;96.70;;;;;;5093143;28;20299;-59
2023/04/07 09:56:12;;;;;;;5.57;4.25;;;17.90;96.30;;;;;;5092967;28;20208;-58
2023/04/07 09:58:40;;;;;;;6.70;4.72;;;17.70;96.70;;;;;;5092744;28;20231;-59
2023/04/07 10:01:08;;;;;;;5.45;4.55;;;17.70;97.00;;;;;;5092604;28;20737;-59
2023/04/07 10:03:35;;;;;;;5.78;4.53;;;17.40;97.20;;;;;;5092874;28;20204;-59
2023/04/07 10:06:04;;;;;;;5.88;4.50;;;17.00;97.80;;;;;;5092543;28;20200;-58
2023/04/07 10:08:33;;;;;;;4.43;4.03;;;16.80;97.90;;;;;;5092788;28;20597;-58
2023/04/07 10:11:01;;;;;;;4.78;4.05;;;17.00;97.80;;;;;;5092488;28;20262;-59
2023/04/07 10:13:29;;;;;;;6.30;4.18;;;17.20;97.40;;;;;;5092869;28;20208;-59
2023/04/07 10:15:56;;;;;;;6.07;4.32;;;17.40;97.20;;;;;;5092563;28;20204;-59
2023/04/07 10:18:28;;;;;;;6.97;3.88;;;17.20;97.30;;;;;;5092635;28;20217;-58
2023/04/07 10:20:56;;;;;;;5.00;3.92;;;16.90;97.40;;;;;;5092596;28;20584;-58
2023/04/07 10:23:28;;;;;;;4.80;3.75;;;16.60;98.00;;;;;;5092621;28;20208;-58
2023/04/07 10:25:58;;;;;;;6.50;4.00;;;16.80;98.10;;;;;;5092922;28;20212;-60
2023/04/07 10:28:27;;;;;;;5.70;3.70;;;17.00;97.80;;;;;;5092580;28;20646;-57
2023/04/07 10:30:54;;;;;;;4.32;3.83;;;17.00;97.30;;;;;;5092447;28;20204;-58
2023/04/07 10:33:46;;;;;;;5.35;3.40;;;17.10;97.80;;;;;;5092689;28;20297;-58
2023/04/07 10:36:13;;;;;;;6.05;3.72;;;17.50;97.20;;;;;;5092542;28;20254;-57
2023/04/07 10:38:41;;;;;;;8.10;4.00;;;17.90;96.80;;;;;;5092267;28;20227;-61
2023/04/07 10:41:34;;;;;;;5.45;3.97;;;18.10;96.20;;;;;;5092393;28;20196;-58
2023/04/07 10:44:02;;;;;;;5.80;3.90;;;18.30;95.60;;;;;;5092696;28;20208;-58
2023/04/07 10:47:03;;;;;;;5.60;3.60;;;18.30;95.70;;;;;;5094137;28;20204;-56
2023/04/07 10:49:30;;;;;;;5.28;3.97;;;18.40;95.30;;;;;;5092246;28;20323;-57
2023/04/07 10:52:23;;;;;;;5.00;3.45;;;18.20;95.60;;;;;;5092382;28;20216;-57
2023/04/07 10:55:30;;;;;;;6.03;3.90;;;17.90;95.80;;;;;;5093037;28;20236;-57
2023/04/07 10:58:23;;;;;;;7.13;4.18;;;17.50;96.20;;;;;;5093225;28;20700;-57
2023/04/07 11:01:21;;;;;;;6.85;4.22;;;17.40;96.50;;;;;;5093274;28;20208;-56
2023/04/07 11:03:59;;;;;;;6.82;4.70;;;17.40;96.90;;;;;;5094734;28;20208;-57
2023/04/07 11:06:26;;;;;;;7.43;4.50;;;17.60;97.00;;;;;;5094228;28;20211;-57
2023/04/07 11:08:53;;;;;;;7.82;4.80;;;17.80;96.90;;;;;;5094256;28;20228;-57
2023/04/07 11:11:37;;;;;;;6.13;4.13;;;17.80;97.00;;;;;;5094306;28;20277;-57
2023/04/07 11:14:05;;;;;;;4.78;3.67;;;17.70;96.40;;;;;;5094167;28;20204;-58
2023/04/07 11:16:40;;;;;;;8.48;4.13;;;17.60;96.20;;;;;;5094656;28;20413;-57
2023/04/07 11:19:07;;;;;;;5.13;3.70;;;17.60;96.40;;;;;;5097982;28;20253;-58
2023/04/07 11:21:35;;;;;;;6.15;3.42;;;17.50;96.10;;;;;;5097711;28;20211;-58
2023/04/07 11:24:02;;;;;;;5.43;3.28;;;17.60;96.00;;;;;;5097674;28;20581;-57
2023/04/07 11:26:36;;;;;;;5.47;3.25;;;17.70;95.80;;;;;;5097305;28;20205;-57
2023/04/07 11:29:03;;;;;;;8.02;3.63;;;17.90;95.40;;;;;;5097278;28;20310;-57
2023/04/07 11:31:31;;;;;;;4.55;3.28;;;18.10;95.40;;;;;;5097306;28;20556;-57
2023/04/07 11:34:00;;;;;;;8.27;3.42;;;18.30;94.90;;;;;;5096714;28;20598;-57
2023/04/07 11:36:29;;;;;;;4.65;3.13;;;18.30;94.70;;;;;;5097157;28;20211;-57
2023/04/07 11:38:57;;;;;;;3.97;2.90;;;18.30;94.60;;;;;;5097365;28;20200;-57
2023/04/07 11:41:24;;;;;;;4.38;3.05;;;18.00;94.60;;;;;;5096854;28;20207;-57
2023/04/07 11:44:05;;;;;;;5.18;3.22;;;18.00;94.60;;;;;;5097009;28;20732;-57
2023/04/07 11:46:32;;;;;;;5.60;3.30;;;18.20;94.50;;;;;;5096811;28;20204;-57
2023/04/07 11:49:10;;;;;;;5.35;3.13;;;18.50;93.90;;;;;;5097901;28;20589;-57
2023/04/07 11:51:37;;;;;;;31.10;18.60;;;18.80;94.10;;;;;;5098530;28;20572;-57
2023/04/07 11:54:04;;;;;;;3.78;2.90;;;19.00;93.40;;;;;;5097630;28;20243;-57
2023/04/07 11:56:42;;;;;;;3.70;2.58;;;19.10;92.60;;;;;;5098026;28;20236;-57
2023/04/07 11:59:21;;;;;;;4.75;2.72;;;18.90;92.60;;;;;;5097875;28;20292;-57
2023/04/07 12:01:48;;;;;;;3.97;2.55;;;18.90;93.00;;;;;;5097696;28;20211;-57
2023/04/07 12:04:16;;;;;;;4.47;2.75;;;18.90;93.20;;;;;;5097667;28;20207;-56
2023/04/07 12:06:43;;;;;;;4.25;2.55;;;18.70;93.40;;;;;;5097571;28;20204;-57
2023/04/07 12:09:28;;;;;;;7.95;2.63;;;18.50;92.90;;;;;;5097796;28;20262;-57
2023/04/07 12:11:55;;;;;;;6.07;2.50;;;18.30;92.60;;;;;;5097494;28;20590;-57
2023/04/07 12:14:24;;;;;;;5.03;2.53;;;18.30;92.50;;;;;;5097129;28;20205;-57
2023/04/07 12:16:52;;;;;;;5.65;2.55;;;18.30;92.60;;;;;;5096510;28;20227;-57
2023/04/07 12:19:18;;;;;;;7.65;2.67;;;18.40;92.60;;;;;;5096912;28;20737;-58
2023/04/07 12:21:45;;;;;;;5.80;2.67;;;18.60;92.40;;;;;;5096497;28;20200;-56
2023/04/07 12:24:12;;;;;;;4.07;2.53;;;18.60;92.60;;;;;;5097103;28;20208;-57
2023/04/07 12:26:39;;;;;;;3.38;2.45;;;18.70;92.10;;;;;;5096597;28;20240;-58
2023/04/07 12:29:06;;;;;;;4.93;2.30;;;18.80;92.00;;;;;;5095908;28;20307;-58
2023/04/07 12:31:35;;;;;;;4.03;2.88;;;18.90;91.90;;;;;;5096170;28;20204;-58
2023/04/07 12:34:02;;;;;;;4.20;2.83;;;18.50;92.20;;;;;;5096243;28;20257;-57
2023/04/07 12:36:29;;;;;;;4.05;2.75;;;18.00;92.70;;;;;;5096260;28;20664;-58
2023/04/07 12:38:56;;;;;;;11.73;6.20;;;17.40;93.60;;;;;;5095667;28;20204;-56
2023/04/07 12:41:25;;;;;;;5.40;2.50;;;17.30;94.20;;;;;;5095752;28;20200;-57
2023/04/07 12:43:52;;;;;;;4.97;2.78;;;17.30;94.10;;;;;;5095270;28;20250;-57
2023/04/07 12:46:20;;;;;;;5.90;2.85;;;17.00;94.60;;;;;;5096011;28;20289;-58
2023/04/07 12:48:48;;;;;;;4.93;3.10;;;17.00;94.90;;;;;;5096108;28;20282;-62
2023/04/07 12:51:15;;;;;;;13.15;10.52;;;17.10;94.90;;;;;;5094642;28;20924;-63
2023/04/07 12:53:42;;;;;;;7.88;4.25;;;17.20;95.50;;;;;;5094421;28;20251;-58
2023/04/07 12:56:09;;;;;;;4.88;3.13;;;17.20;96.80;;;;;;5095652;28;20895;-59
2023/04/07 12:58:36;;;;;;;5.53;3.17;;;17.10;97.60;;;;;;5096350;28;20259;-60
2023/04/07 13:01:03;;;;;;;7.10;5.15;;;16.90;97.80;;;;;;5096415;28;20208;-59